createdAt,value
2022-08-09T00:00:00.706Z,82.30
2022-08-09T00:02:32.390Z,84.40
2022-08-09T00:06:17.499Z,85.80
2022-08-09T00:07:54.408Z,86.90
2022-08-09T00:10:25.328Z,89.60
2022-08-09T00:12:53.362Z,89.40
2022-08-09T00:15:26.598Z,90.30
2022-08-09T00:18:11.372Z,90.90
2022-08-09T00:20:42.202Z,91.10
2022-08-09T00:23:56.143Z,91.00
2022-08-09T00:26:06.250Z,91.50
2022-08-09T00:28:34.763Z,91.80
2022-08-09T00:31:50.474Z,92.10
2022-08-09T00:33:51.991Z,92.50
2022-08-09T00:36:20.022Z,93.00
2022-08-09T00:38:46.909Z,93.80
2022-08-09T00:44:13.137Z,94.20
2022-08-09T00:44:24.893Z,94.70
2022-08-09T00:46:57.489Z,95.00
2022-08-09T00:49:36.933Z,95.40
2022-08-09T00:52:17.702Z,95.20
2022-08-09T00:54:45.980Z,93.90
2022-08-09T00:57:13.725Z,93.80
2022-08-09T00:59:52.733Z,94.60
2022-08-09T01:02:24.008Z,95.20
2022-08-09T01:05:03.247Z,94.90
2022-08-09T01:08:01.116Z,95.50
2022-08-09T01:10:44.135Z,94.60
2022-08-09T01:13:31.016Z,95.00
2022-08-09T01:16:00.885Z,94.70
2022-08-09T01:18:31.381Z,95.10
2022-08-09T01:21:44.648Z,95.10
2022-08-09T01:24:44.456Z,94.50
2022-08-09T01:27:21.449Z,95.20
2022-08-09T01:29:56.573Z,95.20
2022-08-09T01:32:33.744Z,95.10
2022-08-09T01:35:17.963Z,95.00
2022-08-09T01:38:10.189Z,95.60
2022-08-09T01:40:43.030Z,95.00
2022-08-09T01:43:11.641Z,95.10
2022-08-09T01:45:44.661Z,95.20
2022-08-09T01:48:16.988Z,94.70
2022-08-09T01:50:54.989Z,95.50
2022-08-09T01:53:28.991Z,95.60
2022-08-09T01:56:03.108Z,96.60
2022-08-09T01:58:32.525Z,96.80
2022-08-09T02:01:00.643Z,96.70
2022-08-09T02:03:31.357Z,96.90
2022-08-09T02:06:06.235Z,96.80
2022-08-09T02:08:57.653Z,97.60
2022-08-09T02:11:42.014Z,97.20
2022-08-09T02:14:15.008Z,97.50
2022-08-09T02:17:14.815Z,98.10
2022-08-09T02:19:43.492Z,98.60
2022-08-09T02:22:36.222Z,99.20
2022-08-09T02:25:07.585Z,99.90
2022-08-09T02:27:57.443Z,99.90
2022-08-09T02:30:26.519Z,99.10
2022-08-09T02:32:56.653Z,99.80
2022-08-09T02:36:01.413Z,99.80
2022-08-09T02:38:27.943Z,99.90
2022-08-09T02:41:06.252Z,99.90
2022-08-09T02:43:42.493Z,99.90
2022-08-09T02:46:25.395Z,99.90
2022-08-09T02:48:57.064Z,99.90
2022-08-09T02:51:26.503Z,99.90
2022-08-09T02:54:00.611Z,99.90
2022-08-09T02:56:29.842Z,99.90
2022-08-09T02:58:59.377Z,99.90
2022-08-09T03:01:29.124Z,99.90
2022-08-09T03:04:18.426Z,99.90
2022-08-09T03:06:45.694Z,99.90
2022-08-09T03:09:14.190Z,99.90
2022-08-09T03:12:06.630Z,99.90
2022-08-09T03:14:31.853Z,99.90
2022-08-09T03:17:01.745Z,99.90
2022-08-09T03:19:58.471Z,99.90
2022-08-09T03:22:24.969Z,99.90
2022-08-09T03:25:03.314Z,99.90
2022-08-09T03:27:45.165Z,99.90
2022-08-09T03:30:29.733Z,99.90
2022-08-09T03:33:12.843Z,99.90
2022-08-09T03:36:13.982Z,99.90
2022-08-09T03:38:42.687Z,99.90
2022-08-09T03:41:15.029Z,99.90
2022-08-09T03:44:03.030Z,99.90
2022-08-09T03:46:34.063Z,99.90
2022-08-09T03:49:03.893Z,99.90
2022-08-09T03:51:55.338Z,99.90
2022-08-09T03:54:29.702Z,99.90
2022-08-09T03:56:58.285Z,99.90
2022-08-09T03:59:27.351Z,99.90
2022-08-09T04:02:09.375Z,99.90
2022-08-09T04:04:38.903Z,99.90
2022-08-09T04:07:05.973Z,99.90
2022-08-09T04:09:47.939Z,99.90
2022-08-09T04:12:35.686Z,99.90
2022-08-09T04:15:11.518Z,99.90
2022-08-09T04:17:44.673Z,99.90
2022-08-09T04:20:14.931Z,99.90
2022-08-09T04:22:44.278Z,99.90
2022-08-09T04:25:13.027Z,99.90
2022-08-09T04:27:46.742Z,99.90
2022-08-09T04:30:20.993Z,99.90
2022-08-09T04:32:50.920Z,99.90
2022-08-09T04:35:18.496Z,99.90
2022-08-09T04:37:49.606Z,99.90
2022-08-09T04:40:19.338Z,99.90
2022-08-09T04:42:55.807Z,99.90
2022-08-09T04:45:23.713Z,99.90
2022-08-09T04:48:01.002Z,99.90
2022-08-09T04:50:31.848Z,99.90
2022-08-09T04:53:02.061Z,99.90
2022-08-09T04:55:39.134Z,99.90
2022-08-09T04:58:15.618Z,99.90
2022-08-09T05:00:43.178Z,99.90
2022-08-09T05:03:30.778Z,99.90
2022-08-09T05:06:04.389Z,99.90
2022-08-09T05:08:36.933Z,99.90
2022-08-09T05:11:07.460Z,99.90
2022-08-09T05:13:38.751Z,99.90
2022-08-09T05:16:10.347Z,99.90
2022-08-09T05:18:58.577Z,99.90
2022-08-09T05:21:24.850Z,99.90
2022-08-09T05:24:01.531Z,99.90
2022-08-09T05:26:35.918Z,99.90
2022-08-09T05:29:04.424Z,99.90
2022-08-09T05:31:45.035Z,99.90
2022-08-09T05:34:17.077Z,99.90
2022-08-09T05:36:46.998Z,99.90
2022-08-09T05:39:28.794Z,99.90
2022-08-09T05:42:01.516Z,99.90
2022-08-09T05:44:32.705Z,99.90
2022-08-09T05:47:00.154Z,99.90
2022-08-09T05:50:21.249Z,99.90
2022-08-09T05:52:14.020Z,99.90
2022-08-09T05:54:42.289Z,99.90
2022-08-09T05:57:09.491Z,99.90
2022-08-09T05:59:39.563Z,99.90
2022-08-09T06:02:09.108Z,99.90
2022-08-09T06:04:36.923Z,99.90
2022-08-09T06:07:21.604Z,99.90
2022-08-09T06:09:54.344Z,99.90
2022-08-09T06:12:26.499Z,99.90
2022-08-09T06:14:53.556Z,99.90
2022-08-09T06:17:20.303Z,99.90
2022-08-09T06:19:46.930Z,99.00
2022-08-09T06:22:15.786Z,97.90
2022-08-09T06:24:43.997Z,98.70
2022-08-09T06:27:10.628Z,98.60
2022-08-09T06:29:47.704Z,99.40
2022-08-09T06:32:53.574Z,99.90
2022-08-09T06:35:01.664Z,99.40
2022-08-09T06:37:33.346Z,99.80
2022-08-09T06:40:24.044Z,99.20
2022-08-09T06:42:51.628Z,99.90
2022-08-09T06:46:04.447Z,99.80
2022-08-09T06:48:05.202Z,99.90
2022-08-09T06:50:32.050Z,99.10
2022-08-09T06:53:00.673Z,98.20
2022-08-09T06:55:31.745Z,97.30
2022-08-09T06:58:02.661Z,97.90
2022-08-09T07:00:51.343Z,97.60
2022-08-09T07:03:17.590Z,97.60
2022-08-09T07:05:58.538Z,96.90
2022-08-09T07:08:31.145Z,96.70
2022-08-09T07:10:57.868Z,95.70
2022-08-09T07:13:28.047Z,96.00
2022-08-09T07:16:41.614Z,95.00
2022-08-09T07:18:43.563Z,95.30
2022-08-09T07:21:10.786Z,94.70
2022-08-09T07:23:56.456Z,93.20
2022-08-09T07:26:24.857Z,92.60
2022-08-09T07:29:11.842Z,92.10
2022-08-09T07:31:45.218Z,91.00
2022-08-09T07:34:20.617Z,90.80
2022-08-09T07:36:48.946Z,90.70
2022-08-09T07:39:20.496Z,90.50
2022-08-09T07:42:02.869Z,90.00
2022-08-09T07:44:50.934Z,89.10
2022-08-09T07:47:16.407Z,87.50
2022-08-09T07:50:04.572Z,87.70
2022-08-09T07:52:30.369Z,88.20
2022-08-09T07:54:57.557Z,87.50
2022-08-09T07:57:33.800Z,87.00
2022-08-09T08:00:03.789Z,86.90
2022-08-09T08:02:30.816Z,86.80
2022-08-09T08:04:57.736Z,86.00
2022-08-09T08:08:44.575Z,84.60
2022-08-09T08:10:12.305Z,84.90
2022-08-09T08:12:43.070Z,83.70
2022-08-09T08:15:16.767Z,84.10
2022-08-09T08:17:54.106Z,83.20
2022-08-09T08:20:27.195Z,82.70
2022-08-09T08:22:58.766Z,81.70
2022-08-09T08:25:40.328Z,81.20
2022-08-09T08:28:11.600Z,81.00
2022-08-09T08:30:41.721Z,79.40
2022-08-09T08:33:12.066Z,79.70
2022-08-09T08:35:58.915Z,79.50
2022-08-09T08:38:28.609Z,78.20
2022-08-09T08:40:56.989Z,77.20
2022-08-09T08:43:23.960Z,75.40
2022-08-09T08:46:00.125Z,75.80
2022-08-09T08:48:37.067Z,75.80
2022-08-09T08:51:04.838Z,74.30
2022-08-09T08:53:37.346Z,73.50
2022-08-09T08:56:06.104Z,72.70
2022-08-09T08:58:33.281Z,74.60
2022-08-09T09:01:08.922Z,73.50
2022-08-09T09:03:47.416Z,73.60
2022-08-09T09:06:18.110Z,72.60
2022-08-09T09:08:46.261Z,72.10
2022-08-09T09:11:20.344Z,71.60
2022-08-09T09:13:57.528Z,71.60
2022-08-09T09:16:31.259Z,71.70
2022-08-09T09:22:07.582Z,72.50
2022-08-09T09:24:39.597Z,69.30
2022-08-09T09:27:08.932Z,69.40
2022-08-09T09:30:08.492Z,66.70
2022-08-09T09:32:32.542Z,67.70
2022-08-09T09:35:15.650Z,66.90
2022-08-09T09:37:45.728Z,67.50
2022-08-09T09:40:13.030Z,67.20
2022-08-09T09:42:43.062Z,65.10
2022-08-09T09:45:14.384Z,65.00
2022-08-09T09:47:58.270Z,67.00
2022-08-09T09:50:50.808Z,63.60
2022-08-09T09:53:20.978Z,63.30
2022-08-09T09:56:08.157Z,60.20
2022-08-09T09:58:49.131Z,61.60
2022-08-09T10:01:31.264Z,60.30
2022-08-09T10:04:30.339Z,60.20
2022-08-09T10:06:57.886Z,60.10
2022-08-09T10:09:26.571Z,58.70
2022-08-09T10:12:11.984Z,59.00
2022-08-09T10:14:47.665Z,57.50
2022-08-09T10:17:50.217Z,57.40
2022-08-09T10:20:35.649Z,58.10
2022-08-09T10:23:24.911Z,57.10
2022-08-09T10:26:06.267Z,53.60
2022-08-09T10:28:36.606Z,53.80
2022-08-09T10:34:09.544Z,54.00
2022-08-09T10:36:39.824Z,54.20
2022-08-09T10:39:15.687Z,53.00
2022-08-09T10:41:45.912Z,52.70
2022-08-09T10:44:17.779Z,52.60
2022-08-09T10:47:00.648Z,51.40
2022-08-09T10:49:56.846Z,50.90
2022-08-09T10:53:00.928Z,49.80
2022-08-09T10:55:55.068Z,49.30
2022-08-09T10:58:49.417Z,48.50
2022-08-09T11:03:11.813Z,48.60
2022-08-09T11:04:31.450Z,47.10
2022-08-09T11:07:00.158Z,48.10
2022-08-09T11:09:47.869Z,46.80
2022-08-09T11:12:17.870Z,46.70
2022-08-09T11:14:54.642Z,45.90
2022-08-09T11:17:22.619Z,46.20
2022-08-09T11:20:10.302Z,46.20
2022-08-09T11:22:47.151Z,46.20
2022-08-09T11:25:47.359Z,45.90
2022-08-09T11:28:34.478Z,45.20
2022-08-09T11:31:03.972Z,45.60
2022-08-09T11:33:50.335Z,43.80
2022-08-09T11:36:35.469Z,42.50
2022-08-09T11:39:04.958Z,43.90
2022-08-09T11:41:38.575Z,43.80
2022-08-09T11:44:08.174Z,43.60
2022-08-09T11:46:56.873Z,43.80
2022-08-09T11:50:55.326Z,42.20
2022-08-09T11:53:58.667Z,42.50
2022-08-09T11:56:15.317Z,42.40
2022-08-09T11:58:51.336Z,40.10
2022-08-09T12:02:01.158Z,40.70
2022-08-09T12:04:08.749Z,41.90
2022-08-09T12:06:55.728Z,41.10
2022-08-09T12:09:33.591Z,40.00
2022-08-09T12:12:05.807Z,39.30
2022-08-09T12:15:03.645Z,40.80
2022-08-09T12:17:28.088Z,39.80
2022-08-09T12:20:22.668Z,39.30
2022-08-09T12:22:56.154Z,39.70
2022-08-09T12:25:37.711Z,39.10
2022-08-09T12:29:10.890Z,38.90
2022-08-09T12:31:01.634Z,38.50
2022-08-09T12:33:50.833Z,38.90
2022-08-09T12:36:32.303Z,39.00
2022-08-09T12:39:00.982Z,37.90
2022-08-09T12:41:39.083Z,37.90
2022-08-09T12:44:10.204Z,37.50
2022-08-09T12:46:49.056Z,38.00
2022-08-09T12:49:17.472Z,37.20
2022-08-09T12:52:02.641Z,37.90
2022-08-09T12:55:00.638Z,37.50
2022-08-09T12:57:46.893Z,37.00
2022-08-09T13:00:18.588Z,36.40
2022-08-09T13:02:54.056Z,37.20
2022-08-09T13:05:23.072Z,37.40
2022-08-09T13:08:15.538Z,37.90
2022-08-09T13:10:59.362Z,37.40
2022-08-09T13:14:42.452Z,37.80
2022-08-09T13:17:03.685Z,37.50
2022-08-09T13:20:07.411Z,37.70
2022-08-09T13:22:45.658Z,36.30
2022-08-09T13:25:13.840Z,36.10
2022-08-09T13:27:48.555Z,36.30
2022-08-09T13:31:53.536Z,36.50
2022-08-09T13:33:11.560Z,36.40
2022-08-09T13:36:38.707Z,35.70
2022-08-09T13:38:55.997Z,36.00
2022-08-09T13:41:57.881Z,35.90
2022-08-09T13:44:16.297Z,35.30
2022-08-09T13:47:26.963Z,34.90
2022-08-09T13:49:38.163Z,36.10
2022-08-09T13:52:08.957Z,36.40
2022-08-09T13:54:36.322Z,36.20
2022-08-09T13:57:35.325Z,35.90
2022-08-09T13:59:58.210Z,35.10
2022-08-09T14:02:26.232Z,34.10
2022-08-09T14:04:59.783Z,34.60
2022-08-09T14:07:30.394Z,34.60
2022-08-09T14:10:17.434Z,34.50
2022-08-09T14:12:57.407Z,33.90
2022-08-09T14:16:06.635Z,34.20
2022-08-09T14:18:19.918Z,34.00
2022-08-09T14:20:54.694Z,33.80
2022-08-09T14:23:40.109Z,33.50
2022-08-09T14:26:08.042Z,33.40
2022-08-09T14:28:37.184Z,33.50
2022-08-09T14:31:03.979Z,33.30
2022-08-09T14:33:30.591Z,34.50
2022-08-09T14:36:19.977Z,34.40
2022-08-09T14:38:51.206Z,34.90
2022-08-09T14:41:26.619Z,35.80
2022-08-09T14:44:11.131Z,34.90
2022-08-09T14:47:00.697Z,34.00
2022-08-09T14:49:27.649Z,33.80
2022-08-09T14:52:01.985Z,33.30
2022-08-09T14:54:29.315Z,33.00
2022-08-09T14:56:57.583Z,32.90
2022-08-09T14:59:27.383Z,32.60
2022-08-09T15:01:55.908Z,32.80
2022-08-09T15:04:23.489Z,32.70
2022-08-09T15:06:51.792Z,32.80
2022-08-09T15:10:03.428Z,33.10
2022-08-09T15:12:07.809Z,32.80
2022-08-09T15:14:38.834Z,33.50
2022-08-09T15:17:09.637Z,34.30
2022-08-09T15:19:37.076Z,33.50
2022-08-09T15:22:26.063Z,33.20
2022-08-09T15:24:53.683Z,33.10
2022-08-09T15:27:21.278Z,33.50
2022-08-09T15:30:55.390Z,32.80
2022-08-09T15:32:35.572Z,32.10
2022-08-09T15:35:18.316Z,31.80
2022-08-09T15:37:57.026Z,31.80
2022-08-09T15:40:37.235Z,31.80
2022-08-09T15:43:13.165Z,32.20
2022-08-09T15:46:07.825Z,32.00
2022-08-09T15:48:30.833Z,32.10
2022-08-09T15:51:02.636Z,32.80
2022-08-09T15:54:05.213Z,33.90
2022-08-09T15:56:34.794Z,34.50
2022-08-09T15:59:02.540Z,33.90
2022-08-09T16:01:31.483Z,34.30
2022-08-09T16:04:02.577Z,33.50
2022-08-09T16:06:35.821Z,33.60
2022-08-09T16:09:05.743Z,32.90
2022-08-09T16:11:33.557Z,33.00
2022-08-09T16:14:06.455Z,33.00
2022-08-09T16:16:41.830Z,32.70
2022-08-09T16:19:13.510Z,32.70
2022-08-09T16:21:41.790Z,32.70
2022-08-09T16:24:30.251Z,33.10
2022-08-09T16:27:00.799Z,33.10
2022-08-09T16:29:37.878Z,33.80
2022-08-09T16:32:33.257Z,33.90
2022-08-09T16:35:00.652Z,33.60
2022-08-09T16:37:54.470Z,33.80
2022-08-09T16:40:29.443Z,33.80
2022-08-09T16:42:57.048Z,34.00
2022-08-09T16:45:23.769Z,34.30
2022-08-09T16:48:38.241Z,34.30
2022-08-09T16:50:41.711Z,34.40
2022-08-09T16:53:26.841Z,33.50
2022-08-09T16:56:04.861Z,33.50
2022-08-09T16:58:36.111Z,33.30
2022-08-09T17:01:04.581Z,33.80
2022-08-09T17:03:32.010Z,33.90
2022-08-09T17:06:07.903Z,34.50
2022-08-09T17:09:03.211Z,34.70
2022-08-09T17:11:40.167Z,35.20
2022-08-09T17:14:08.766Z,35.50
2022-08-09T17:16:53.878Z,35.40
2022-08-09T17:19:20.994Z,35.90
2022-08-09T17:21:47.772Z,36.20
2022-08-09T17:24:27.572Z,36.10
2022-08-09T17:26:56.822Z,36.20
2022-08-09T17:29:25.416Z,36.50
2022-08-09T17:32:00.827Z,36.10
2022-08-09T17:35:02.046Z,36.30
2022-08-09T17:37:19.776Z,36.50
2022-08-09T17:39:53.198Z,37.00
2022-08-09T17:42:41.739Z,37.30
2022-08-09T17:45:15.679Z,37.30
2022-08-09T17:47:54.833Z,37.50
2022-08-09T17:50:24.873Z,37.40
2022-08-09T17:53:19.283Z,37.40
2022-08-09T17:55:51.954Z,37.80
2022-08-09T17:58:26.794Z,38.00
2022-08-09T18:00:55.212Z,37.90
2022-08-09T18:03:24.162Z,38.30
2022-08-09T18:05:53.211Z,39.20
2022-08-09T18:08:22.060Z,39.50
2022-08-09T18:11:02.344Z,40.00
2022-08-09T18:13:42.932Z,40.50
2022-08-09T18:16:17.518Z,40.30
2022-08-09T18:18:57.540Z,40.50
2022-08-09T18:21:26.302Z,40.60
2022-08-09T18:24:10.934Z,41.00
2022-08-09T18:26:46.050Z,41.10
2022-08-09T18:30:40.041Z,41.30
2022-08-09T18:32:02.986Z,41.40
2022-08-09T18:34:31.563Z,41.50
2022-08-09T18:36:58.976Z,41.80
2022-08-09T18:39:27.109Z,42.00
2022-08-09T18:42:01.697Z,42.30
2022-08-09T18:44:28.460Z,42.50
2022-08-09T18:47:07.794Z,42.50
2022-08-09T18:49:43.625Z,42.70
2022-08-09T18:52:15.663Z,43.00
2022-08-09T18:54:52.899Z,43.10
2022-08-09T18:57:22.239Z,43.10
2022-08-09T18:59:57.551Z,43.20
2022-08-09T19:02:32.362Z,43.40
2022-08-09T19:05:04.031Z,43.40
2022-08-09T19:08:04.836Z,43.90
2022-08-09T19:10:36.985Z,43.80
2022-08-09T19:13:17.059Z,44.10
2022-08-09T19:15:49.914Z,44.10
2022-08-09T19:18:33.798Z,44.00
2022-08-09T19:21:05.470Z,44.30
2022-08-09T19:24:39.577Z,44.40
2022-08-09T19:26:19.268Z,44.50
2022-08-09T19:29:01.364Z,44.90
2022-08-09T19:31:30.419Z,44.90
2022-08-09T19:33:58.040Z,44.90
2022-08-09T19:36:30.793Z,44.90
2022-08-09T19:39:01.241Z,45.10
2022-08-09T19:41:35.470Z,45.30
2022-08-09T19:44:03.495Z,45.30
2022-08-09T19:46:35.566Z,45.60
2022-08-09T19:50:48.384Z,45.60
2022-08-09T19:52:03.369Z,45.80
2022-08-09T19:54:30.804Z,46.10
2022-08-09T19:56:58.991Z,46.10
2022-08-09T19:59:58.620Z,46.10
2022-08-09T20:04:09.844Z,46.90
2022-08-09T20:05:10.120Z,46.20
2022-08-09T20:07:59.181Z,46.30
2022-08-09T20:10:36.503Z,46.20
2022-08-09T20:13:05.492Z,46.50
2022-08-09T20:16:34.444Z,46.60
2022-08-09T20:18:20.314Z,46.80
2022-08-09T20:20:51.278Z,46.90
2022-08-09T20:23:23.043Z,47.30
2022-08-09T20:25:53.349Z,47.30
2022-08-09T20:28:34.365Z,47.20
2022-08-09T20:31:13.716Z,47.30
2022-08-09T20:33:44.028Z,47.50
2022-08-09T20:36:12.266Z,47.60
2022-08-09T20:41:34.933Z,47.80
2022-08-09T20:44:10.012Z,47.60
2022-08-09T20:46:42.712Z,47.90
2022-08-09T20:49:11.759Z,48.10
2022-08-09T20:51:41.169Z,48.20
2022-08-09T20:54:12.595Z,48.20
2022-08-09T20:56:41.092Z,48.20
2022-08-09T20:59:07.967Z,48.30
2022-08-09T21:01:50.557Z,48.40
2022-08-09T21:05:55.291Z,48.90
2022-08-09T21:07:13.171Z,48.90
2022-08-09T21:09:56.654Z,49.10
2022-08-09T21:15:16.886Z,49.40
2022-08-09T21:18:23.134Z,50.00
2022-08-09T21:20:31.829Z,49.80
2022-08-09T21:23:00.255Z,50.10
2022-08-09T21:25:55.271Z,50.30
2022-08-09T21:28:35.195Z,50.90
2022-08-09T21:31:17.472Z,51.10
2022-08-09T21:33:50.267Z,51.30
2022-08-09T21:36:19.105Z,51.50
2022-08-09T21:38:55.114Z,51.80
2022-08-09T21:42:04.117Z,51.60
2022-08-09T21:44:15.239Z,51.70
2022-08-09T21:46:59.215Z,52.10
2022-08-09T21:49:25.938Z,52.30
2022-08-09T21:51:53.559Z,52.60
2022-08-09T21:54:21.324Z,53.10
2022-08-09T21:56:54.479Z,53.20
2022-08-09T21:59:23.393Z,53.30
2022-08-09T22:02:01.084Z,52.90
2022-08-09T22:04:56.919Z,53.10
2022-08-09T22:07:35.256Z,53.50
2022-08-09T22:10:06.076Z,53.60
2022-08-09T22:12:33.084Z,53.80
2022-08-09T22:15:00.246Z,54.00
2022-08-09T22:17:27.844Z,54.10
2022-08-09T22:20:00.822Z,55.10
2022-08-09T22:22:31.124Z,54.70
2022-08-09T22:26:07.518Z,55.10
2022-08-09T22:27:47.706Z,55.00
2022-08-09T22:30:15.695Z,55.10
2022-08-09T22:32:53.261Z,55.00
2022-08-09T22:35:59.896Z,55.50
2022-08-09T22:38:07.964Z,55.60
2022-08-09T22:40:35.499Z,55.50
2022-08-09T22:43:16.713Z,56.40
2022-08-09T22:48:16.715Z,56.50
2022-08-09T22:48:36.804Z,56.50
2022-08-09T22:51:10.591Z,56.30
2022-08-09T22:53:44.513Z,56.60
2022-08-09T22:56:31.053Z,56.60
2022-08-09T22:59:01.223Z,57.30
2022-08-09T23:01:33.218Z,57.30
2022-08-09T23:04:06.088Z,57.10
2022-08-09T23:06:52.650Z,56.80
2022-08-09T23:09:19.332Z,57.70
2022-08-09T23:11:46.119Z,57.80
2022-08-09T23:14:16.996Z,58.60
2022-08-09T23:16:44.321Z,58.70
2022-08-09T23:19:10.961Z,59.20
2022-08-09T23:21:38.927Z,58.90
2022-08-09T23:24:07.330Z,59.50
2022-08-09T23:26:36.017Z,59.60
2022-08-09T23:29:03.420Z,60.10
2022-08-09T23:31:30.051Z,60.30
2022-08-09T23:33:56.821Z,61.00
2022-08-09T23:36:23.424Z,62.20
2022-08-09T23:38:50.056Z,62.00
2022-08-09T23:41:27.441Z,61.50
2022-08-09T23:43:57.391Z,61.60
2022-08-09T23:46:24.156Z,62.40
2022-08-09T23:48:50.755Z,63.00
2022-08-09T23:51:17.555Z,63.80
2022-08-09T23:53:44.214Z,64.40
2022-08-09T23:56:10.805Z,65.30
2022-08-09T23:58:37.484Z,66.10
